sensor_id;sensor_type;location;lat;lon;timestamp;P1;durP1;ratioP1;P2;durP2;ratioP2
81894;SDS011;71358;45.642;13.758;2023-08-01T03:26:31;3.90;;;2.30;;
81894;SDS011;71358;45.642;13.758;2023-08-01T03:29:16;3.78;;;2.15;;
81894;SDS011;71358;45.642;13.758;2023-08-01T03:32:00;2.70;;;2.45;;
81894;SDS011;71358;45.642;13.758;2023-08-01T03:34:45;2.50;;;2.30;;
81894;SDS011;71358;45.642;13.758;2023-08-01T03:37:30;2.75;;;2.22;;
81894;SDS011;71358;45.642;13.758;2023-08-01T03:40:14;3.95;;;2.30;;
81894;SDS011;71358;45.642;13.758;2023-08-01T03:42:59;2.30;;;2.10;;
81894;SDS011;71358;45.642;13.758;2023-08-01T03:45:43;3.97;;;2.63;;
81894;SDS011;71358;45.642;13.758;2023-08-01T03:48:28;2.42;;;2.22;;
81894;SDS011;71358;45.642;13.758;2023-08-01T03:51:12;5.07;;;2.70;;
81894;SDS011;71358;45.642;13.758;2023-08-01T03:53:59;2.67;;;2.28;;
81894;SDS011;71358;45.642;13.758;2023-08-01T03:56:44;2.60;;;2.40;;
81894;SDS011;71358;45.642;13.758;2023-08-01T03:59:29;2.80;;;2.47;;
81894;SDS011;71358;45.642;13.758;2023-08-01T04:02:14;2.70;;;2.45;;
81894;SDS011;71358;45.642;13.758;2023-08-01T04:04:58;2.58;;;2.38;;
81894;SDS011;71358;45.642;13.758;2023-08-01T04:07:43;2.53;;;2.33;;
81894;SDS011;71358;45.642;13.758;2023-08-01T04:10:28;2.72;;;2.53;;
81894;SDS011;71358;45.642;13.758;2023-08-01T04:13:12;3.20;;;2.40;;
81894;SDS011;71358;45.642;13.758;2023-08-01T04:15:57;2.28;;;2.17;;
81894;SDS011;71358;45.642;13.758;2023-08-01T04:18:42;3.05;;;2.67;;
81894;SDS011;71358;45.642;13.758;2023-08-01T04:21:28;2.65;;;2.40;;
81894;SDS011;71358;45.642;13.758;2023-08-01T04:24:12;3.28;;;2.75;;
81894;SDS011;71358;45.642;13.758;2023-08-01T04:26:57;9.23;;;2.72;;
81894;SDS011;71358;45.642;13.758;2023-08-01T04:29:42;4.43;;;2.55;;
81894;SDS011;71358;45.642;13.758;2023-08-01T04:32:26;3.53;;;2.50;;
81894;SDS011;71358;45.642;13.758;2023-08-01T04:35:10;4.32;;;2.30;;
81894;SDS011;71358;45.642;13.758;2023-08-01T04:37:55;3.25;;;2.70;;
81894;SDS011;71358;45.642;13.758;2023-08-01T04:40:40;2.80;;;2.60;;
81894;SDS011;71358;45.642;13.758;2023-08-01T04:43:24;2.33;;;1.98;;
81894;SDS011;71358;45.642;13.758;2023-08-01T04:46:09;2.63;;;2.42;;
81894;SDS011;71358;45.642;13.758;2023-08-01T04:48:54;3.17;;;2.65;;
81894;SDS011;71358;45.642;13.758;2023-08-01T04:51:38;2.90;;;2.53;;
81894;SDS011;71358;45.642;13.758;2023-08-01T04:54:23;2.63;;;2.42;;
81894;SDS011;71358;45.642;13.758;2023-08-01T04:57:07;2.72;;;2.40;;
81894;SDS011;71358;45.642;13.758;2023-08-01T04:59:52;2.72;;;2.50;;
81894;SDS011;71358;45.642;13.758;2023-08-01T05:02:37;2.50;;;2.30;;
81894;SDS011;71358;45.642;13.758;2023-08-01T05:05:21;2.45;;;2.25;;
81894;SDS011;71358;45.642;13.758;2023-08-01T05:08:06;3.65;;;2.50;;
81894;SDS011;71358;45.642;13.758;2023-08-01T05:10:51;2.78;;;2.58;;
81894;SDS011;71358;45.642;13.758;2023-08-01T05:13:35;3.45;;;2.45;;
81894;SDS011;71358;45.642;13.758;2023-08-01T05:16:20;2.40;;;2.20;;
81894;SDS011;71358;45.642;13.758;2023-08-01T05:19:05;2.85;;;2.53;;
81894;SDS011;71358;45.642;13.758;2023-08-01T05:21:49;2.97;;;2.58;;
81894;SDS011;71358;45.642;13.758;2023-08-01T05:24:34;3.55;;;2.70;;
81894;SDS011;71358;45.642;13.758;2023-08-01T05:27:18;2.38;;;2.17;;
81894;SDS011;71358;45.642;13.758;2023-08-01T05:30:03;3.03;;;2.20;;
81894;SDS011;71358;45.642;13.758;2023-08-01T05:32:48;3.65;;;2.35;;
81894;SDS011;71358;45.642;13.758;2023-08-01T05:35:33;3.55;;;2.50;;
81894;SDS011;71358;45.642;13.758;2023-08-01T05:38:17;2.42;;;2.22;;
81894;SDS011;71358;45.642;13.758;2023-08-01T05:41:02;3.08;;;2.45;;
81894;SDS011;71358;45.642;13.758;2023-08-01T05:43:47;5.13;;;2.75;;
81894;SDS011;71358;45.642;13.758;2023-08-01T05:46:32;2.75;;;2.30;;
81894;SDS011;71358;45.642;13.758;2023-08-01T05:49:17;2.67;;;2.47;;
81894;SDS011;71358;45.642;13.758;2023-08-01T05:52:01;5.05;;;2.90;;
81894;SDS011;71358;45.642;13.758;2023-08-01T05:54:46;6.68;;;3.00;;
81894;SDS011;71358;45.642;13.758;2023-08-01T05:57:31;5.15;;;2.78;;
81894;SDS011;71358;45.642;13.758;2023-08-01T06:00:15;3.72;;;2.75;;
81894;SDS011;71358;45.642;13.758;2023-08-01T06:03:00;5.40;;;2.78;;
81894;SDS011;71358;45.642;13.758;2023-08-01T06:05:45;3.58;;;3.28;;
81894;SDS011;71358;45.642;13.758;2023-08-01T06:08:29;5.55;;;3.03;;
81894;SDS011;71358;45.642;13.758;2023-08-01T06:11:14;4.18;;;3.30;;
81894;SDS011;71358;45.642;13.758;2023-08-01T06:13:59;4.80;;;2.60;;
81894;SDS011;71358;45.642;13.758;2023-08-01T06:16:43;2.70;;;2.30;;
81894;SDS011;71358;45.642;13.758;2023-08-01T06:19:28;3.75;;;2.75;;
81894;SDS011;71358;45.642;13.758;2023-08-01T06:22:12;3.60;;;2.70;;
81894;SDS011;71358;45.642;13.758;2023-08-01T06:24:57;5.88;;;3.15;;
81894;SDS011;71358;45.642;13.758;2023-08-01T06:27:41;4.93;;;2.92;;
81894;SDS011;71358;45.642;13.758;2023-08-01T06:30:26;3.65;;;3.00;;
81894;SDS011;71358;45.642;13.758;2023-08-01T06:33:10;4.80;;;2.58;;
81894;SDS011;71358;45.642;13.758;2023-08-01T06:35:55;4.50;;;2.50;;
81894;SDS011;71358;45.642;13.758;2023-08-01T06:38:40;2.63;;;2.42;;
81894;SDS011;71358;45.642;13.758;2023-08-01T06:41:24;4.60;;;3.13;;
81894;SDS011;71358;45.642;13.758;2023-08-01T06:44:09;6.05;;;2.55;;
81894;SDS011;71358;45.642;13.758;2023-08-01T06:46:54;2.83;;;2.08;;
81894;SDS011;71358;45.642;13.758;2023-08-01T06:49:38;3.63;;;2.30;;
81894;SDS011;71358;45.642;13.758;2023-08-01T06:52:23;3.85;;;2.03;;
81894;SDS011;71358;45.642;13.758;2023-08-01T06:55:08;2.38;;;2.05;;
81894;SDS011;71358;45.642;13.758;2023-08-01T06:57:52;4.97;;;2.83;;
81894;SDS011;71358;45.642;13.758;2023-08-01T07:00:37;3.80;;;2.80;;
81894;SDS011;71358;45.642;13.758;2023-08-01T07:03:21;4.38;;;2.58;;
81894;SDS011;71358;45.642;13.758;2023-08-01T07:06:06;3.50;;;2.60;;
81894;SDS011;71358;45.642;13.758;2023-08-01T07:08:50;5.25;;;2.67;;
81894;SDS011;71358;45.642;13.758;2023-08-01T07:11:35;4.65;;;2.50;;
81894;SDS011;71358;45.642;13.758;2023-08-01T07:14:19;3.95;;;2.47;;
81894;SDS011;71358;45.642;13.758;2023-08-01T07:17:04;2.80;;;2.60;;
81894;SDS011;71358;45.642;13.758;2023-08-01T07:19:49;3.22;;;2.17;;
81894;SDS011;71358;45.642;13.758;2023-08-01T07:22:33;3.55;;;2.60;;
81894;SDS011;71358;45.642;13.758;2023-08-01T07:25:18;2.88;;;2.30;;
81894;SDS011;71358;45.642;13.758;2023-08-01T07:28:03;2.97;;;2.20;;
81894;SDS011;71358;45.642;13.758;2023-08-01T07:30:47;2.60;;;1.80;;
81894;SDS011;71358;45.642;13.758;2023-08-01T07:33:33;3.08;;;2.30;;
81894;SDS011;71358;45.642;13.758;2023-08-01T07:36:17;3.00;;;2.20;;
81894;SDS011;71358;45.642;13.758;2023-08-01T07:39:02;2.58;;;2.38;;
81894;SDS011;71358;45.642;13.758;2023-08-01T07:41:46;3.90;;;2.53;;
81894;SDS011;71358;45.642;13.758;2023-08-01T07:44:31;2.53;;;2.33;;
81894;SDS011;71358;45.642;13.758;2023-08-01T07:47:16;2.42;;;2.22;;
81894;SDS011;71358;45.642;13.758;2023-08-01T07:50:00;3.00;;;2.40;;
81894;SDS011;71358;45.642;13.758;2023-08-01T07:52:45;2.78;;;2.40;;
81894;SDS011;71358;45.642;13.758;2023-08-01T07:55:33;4.55;;;2.50;;
81894;SDS011;71358;45.642;13.758;2023-08-01T07:58:18;2.42;;;2.22;;
81894;SDS011;71358;45.642;13.758;2023-08-01T08:01:03;3.38;;;2.40;;
81894;SDS011;71358;45.642;13.758;2023-08-01T08:03:48;2.10;;;2.00;;
81894;SDS011;71358;45.642;13.758;2023-08-01T08:06:32;5.47;;;2.10;;
81894;SDS011;71358;45.642;13.758;2023-08-01T08:09:17;3.30;;;2.20;;
81894;SDS011;71358;45.642;13.758;2023-08-01T08:12:02;4.65;;;2.05;;
81894;SDS011;71358;45.642;13.758;2023-08-01T08:14:47;2.85;;;2.40;;
81894;SDS011;71358;45.642;13.758;2023-08-01T08:17:31;2.75;;;2.47;;
81894;SDS011;71358;45.642;13.758;2023-08-01T08:20:15;2.85;;;1.98;;
81894;SDS011;71358;45.642;13.758;2023-08-01T08:23:00;1.98;;;1.88;;
81894;SDS011;71358;45.642;13.758;2023-08-01T08:25:44;2.58;;;2.30;;
81894;SDS011;71358;45.642;13.758;2023-08-01T08:28:30;2.03;;;1.88;;
81894;SDS011;71358;45.642;13.758;2023-08-01T08:31:16;3.47;;;2.15;;
81894;SDS011;71358;45.642;13.758;2023-08-01T08:34:01;2.17;;;2.00;;
81894;SDS011;71358;45.642;13.758;2023-08-01T08:36:45;3.60;;;2.10;;
81894;SDS011;71358;45.642;13.758;2023-08-01T08:39:30;2.25;;;2.03;;
81894;SDS011;71358;45.642;13.758;2023-08-01T08:42:17;3.67;;;2.55;;
81894;SDS011;71358;45.642;13.758;2023-08-01T08:45:03;2.70;;;2.50;;
81894;SDS011;71358;45.642;13.758;2023-08-01T08:47:52;2.83;;;2.20;;
81894;SDS011;71358;45.642;13.758;2023-08-01T08:50:39;2.67;;;2.05;;
81894;SDS011;71358;45.642;13.758;2023-08-01T08:53:25;2.92;;;1.92;;
81894;SDS011;71358;45.642;13.758;2023-08-01T08:56:10;2.10;;;2.00;;
81894;SDS011;71358;45.642;13.758;2023-08-01T08:58:55;2.25;;;2.05;;
81894;SDS011;71358;45.642;13.758;2023-08-01T09:01:40;2.08;;;1.90;;
81894;SDS011;71358;45.642;13.758;2023-08-01T09:04:25;2.47;;;2.25;;
81894;SDS011;71358;45.642;13.758;2023-08-01T09:07:10;2.75;;;2.55;;
81894;SDS011;71358;45.642;13.758;2023-08-01T09:09:56;3.30;;;3.00;;
81894;SDS011;71358;45.642;13.758;2023-08-01T09:12:41;2.58;;;2.35;;
81894;SDS011;71358;45.642;13.758;2023-08-01T09:15:25;3.60;;;2.92;;
81894;SDS011;71358;45.642;13.758;2023-08-01T09:18:12;2.72;;;2.53;;
81894;SDS011;71358;45.642;13.758;2023-08-01T09:20:57;3.67;;;2.63;;
81894;SDS011;71358;45.642;13.758;2023-08-01T09:23:46;3.17;;;2.90;;
81894;SDS011;71358;45.642;13.758;2023-08-01T09:26:30;3.88;;;2.97;;
81894;SDS011;71358;45.642;13.758;2023-08-01T09:29:19;3.17;;;2.70;;
81894;SDS011;71358;45.642;13.758;2023-08-01T09:32:13;2.95;;;2.70;;
81894;SDS011;71358;45.642;13.758;2023-08-01T09:34:58;2.90;;;2.55;;
81894;SDS011;71358;45.642;13.758;2023-08-01T09:37:47;3.20;;;2.80;;
81894;SDS011;71358;45.642;13.758;2023-08-01T09:40:35;2.80;;;2.30;;
81894;SDS011;71358;45.642;13.758;2023-08-01T09:43:20;3.13;;;2.80;;
81894;SDS011;71358;45.642;13.758;2023-08-01T09:46:06;4.30;;;2.70;;
81894;SDS011;71358;45.642;13.758;2023-08-01T09:48:50;2.35;;;2.15;;
81894;SDS011;71358;45.642;13.758;2023-08-01T09:51:45;6.43;;;2.67;;
81894;SDS011;71358;45.642;13.758;2023-08-01T09:54:32;3.63;;;2.60;;
81894;SDS011;71358;45.642;13.758;2023-08-01T09:57:17;3.55;;;2.75;;
81894;SDS011;71358;45.642;13.758;2023-08-01T10:00:02;4.00;;;2.50;;
81894;SDS011;71358;45.642;13.758;2023-08-01T10:02:59;2.95;;;2.38;;
81894;SDS011;71358;45.642;13.758;2023-08-01T10:05:44;2.65;;;2.15;;
81894;SDS011;71358;45.642;13.758;2023-08-01T10:08:29;2.78;;;2.55;;
81894;SDS011;71358;45.642;13.758;2023-08-01T10:11:17;2.60;;;2.40;;
81894;SDS011;71358;45.642;13.758;2023-08-01T10:14:03;2.53;;;2.33;;
81894;SDS011;71358;45.642;13.758;2023-08-01T10:16:49;2.30;;;2.10;;
81894;SDS011;71358;45.642;13.758;2023-08-01T10:19:35;2.47;;;2.28;;
81894;SDS011;71358;45.642;13.758;2023-08-01T10:22:20;3.28;;;2.78;;
81894;SDS011;71358;45.642;13.758;2023-08-01T10:25:05;2.45;;;2.25;;
81894;SDS011;71358;45.642;13.758;2023-08-01T10:28:00;2.33;;;1.88;;
81894;SDS011;71358;45.642;13.758;2023-08-01T10:30:45;2.45;;;2.25;;
81894;SDS011;71358;45.642;13.758;2023-08-01T10:33:33;2.50;;;2.25;;
81894;SDS011;71358;45.642;13.758;2023-08-01T10:36:19;2.75;;;2.55;;
81894;SDS011;71358;45.642;13.758;2023-08-01T10:39:05;2.83;;;2.28;;
81894;SDS011;71358;45.642;13.758;2023-08-01T10:42:00;2.28;;;2.15;;
81894;SDS011;71358;45.642;13.758;2023-08-01T10:44:46;2.15;;;2.05;;
81894;SDS011;71358;45.642;13.758;2023-08-01T10:47:31;2.78;;;2.55;;
81894;SDS011;71358;45.642;13.758;2023-08-01T10:50:16;3.15;;;2.10;;
81894;SDS011;71358;45.642;13.758;2023-08-01T10:53:07;2.60;;;2.40;;
81894;SDS011;71358;45.642;13.758;2023-08-01T10:55:53;2.45;;;2.25;;
81894;SDS011;71358;45.642;13.758;2023-08-01T10:58:37;2.28;;;2.08;;
81894;SDS011;71358;45.642;13.758;2023-08-01T11:01:22;2.22;;;2.10;;
81894;SDS011;71358;45.642;13.758;2023-08-01T11:04:13;2.00;;;1.90;;
81894;SDS011;71358;45.642;13.758;2023-08-01T11:07:01;3.03;;;2.30;;
81894;SDS011;71358;45.642;13.758;2023-08-01T11:09:47;2.08;;;1.98;;
81894;SDS011;71358;45.642;13.758;2023-08-01T11:12:38;2.05;;;1.95;;
81894;SDS011;71358;45.642;13.758;2023-08-01T11:15:24;2.30;;;2.20;;
81894;SDS011;71358;45.642;13.758;2023-08-01T11:18:09;2.30;;;2.10;;
81894;SDS011;71358;45.642;13.758;2023-08-01T11:20:54;2.67;;;1.77;;
81894;SDS011;71358;45.642;13.758;2023-08-01T11:23:38;2.45;;;2.08;;
81894;SDS011;71358;45.642;13.758;2023-08-01T11:26:23;2.10;;;1.90;;
81894;SDS011;71358;45.642;13.758;2023-08-01T11:29:07;2.50;;;2.30;;
81894;SDS011;71358;45.642;13.758;2023-08-01T11:31:53;2.47;;;2.28;;
81894;SDS011;71358;45.642;13.758;2023-08-01T11:34:39;2.50;;;2.30;;
81894;SDS011;71358;45.642;13.758;2023-08-01T11:37:33;2.40;;;2.20;;
81894;SDS011;71358;45.642;13.758;2023-08-01T11:40:19;2.40;;;2.20;;
81894;SDS011;71358;45.642;13.758;2023-08-01T11:43:03;3.30;;;2.35;;
81894;SDS011;71358;45.642;13.758;2023-08-01T11:45:49;2.53;;;2.08;;
81894;SDS011;71358;45.642;13.758;2023-08-01T11:48:34;5.00;;;2.40;;
81894;SDS011;71358;45.642;13.758;2023-08-01T11:51:19;2.83;;;2.05;;
81894;SDS011;71358;45.642;13.758;2023-08-01T11:54:04;2.80;;;2.50;;
81894;SDS011;71358;45.642;13.758;2023-08-01T11:56:48;2.55;;;2.35;;
81894;SDS011;71358;45.642;13.758;2023-08-01T11:59:51;2.80;;;2.20;;
81894;SDS011;71358;45.642;13.758;2023-08-01T12:02:36;2.70;;;2.50;;
81894;SDS011;71358;45.642;13.758;2023-08-01T12:05:21;2.85;;;2.15;;
81894;SDS011;71358;45.642;13.758;2023-08-01T12:08:10;4.68;;;2.58;;
81894;SDS011;71358;45.642;13.758;2023-08-01T12:10:55;3.20;;;2.28;;
81894;SDS011;71358;45.642;13.758;2023-08-01T12:13:40;2.30;;;2.20;;
81894;SDS011;71358;45.642;13.758;2023-08-01T12:16:25;2.40;;;2.30;;
81894;SDS011;71358;45.642;13.758;2023-08-01T12:19:09;2.50;;;2.30;;
81894;SDS011;71358;45.642;13.758;2023-08-01T12:21:54;2.60;;;2.40;;
81894;SDS011;71358;45.642;13.758;2023-08-01T13:23:35;2.88;;;2.53;;
81894;SDS011;71358;45.642;13.758;2023-08-01T13:26:20;2.45;;;2.33;;
81894;SDS011;71358;45.642;13.758;2023-08-01T13:29:05;3.15;;;2.85;;
81894;SDS011;71358;45.642;13.758;2023-08-01T13:31:49;2.50;;;2.30;;
81894;SDS011;71358;45.642;13.758;2023-08-01T13:34:34;3.00;;;2.53;;
81894;SDS011;71358;45.642;13.758;2023-08-01T13:37:18;3.55;;;2.40;;
81894;SDS011;71358;45.642;13.758;2023-08-01T13:40:03;2.50;;;2.30;;
81894;SDS011;71358;45.642;13.758;2023-08-01T13:42:49;3.05;;;2.63;;
81894;SDS011;71358;45.642;13.758;2023-08-01T13:45:33;3.95;;;2.78;;
81894;SDS011;71358;45.642;13.758;2023-08-01T13:48:18;2.83;;;2.63;;
81894;SDS011;71358;45.642;13.758;2023-08-01T13:51:02;2.72;;;2.40;;
81894;SDS011;71358;45.642;13.758;2023-08-01T13:53:47;3.25;;;2.95;;
81894;SDS011;71358;45.642;13.758;2023-08-01T13:56:32;3.33;;;3.08;;
81894;SDS011;71358;45.642;13.758;2023-08-01T13:59:16;6.57;;;3.78;;
81894;SDS011;71358;45.642;13.758;2023-08-01T14:02:01;3.38;;;3.08;;
81894;SDS011;71358;45.642;13.758;2023-08-01T14:04:45;4.85;;;4.03;;
81894;SDS011;71358;45.642;13.758;2023-08-01T14:07:30;8.25;;;4.35;;
81894;SDS011;71358;45.642;13.758;2023-08-01T14:10:14;4.82;;;3.85;;
81894;SDS011;71358;45.642;13.758;2023-08-01T14:12:59;7.32;;;4.35;;
81894;SDS011;71358;45.642;13.758;2023-08-01T14:15:43;6.28;;;4.25;;
81894;SDS011;71358;45.642;13.758;2023-08-01T14:18:28;5.50;;;4.20;;
81894;SDS011;71358;45.642;13.758;2023-08-01T14:21:12;7.93;;;4.68;;
81894;SDS011;71358;45.642;13.758;2023-08-01T14:23:57;4.68;;;4.28;;
81894;SDS011;71358;45.642;13.758;2023-08-01T14:26:42;5.28;;;4.30;;
81894;SDS011;71358;45.642;13.758;2023-08-01T14:29:26;6.45;;;4.75;;
81894;SDS011;71358;45.642;13.758;2023-08-01T14:32:11;7.68;;;3.95;;
81894;SDS011;71358;45.642;13.758;2023-08-01T14:34:55;5.00;;;3.90;;
81894;SDS011;71358;45.642;13.758;2023-08-01T14:37:40;4.68;;;4.00;;
81894;SDS011;71358;45.642;13.758;2023-08-01T14:40:29;3.67;;;3.38;;
81894;SDS011;71358;45.642;13.758;2023-08-01T14:43:14;4.40;;;3.88;;
81894;SDS011;71358;45.642;13.758;2023-08-01T14:46:00;4.75;;;4.13;;
81894;SDS011;71358;45.642;13.758;2023-08-01T14:48:45;4.60;;;3.75;;
81894;SDS011;71358;45.642;13.758;2023-08-01T14:51:29;4.50;;;4.00;;
81894;SDS011;71358;45.642;13.758;2023-08-01T14:54:14;4.82;;;3.63;;
81894;SDS011;71358;45.642;13.758;2023-08-01T14:56:59;5.07;;;4.57;;
81894;SDS011;71358;45.642;13.758;2023-08-01T14:59:43;6.40;;;3.90;;
81894;SDS011;71358;45.642;13.758;2023-08-01T15:02:28;6.30;;;3.97;;
81894;SDS011;71358;45.642;13.758;2023-08-01T15:05:12;5.85;;;4.78;;
81894;SDS011;71358;45.642;13.758;2023-08-01T15:07:57;6.55;;;4.53;;
81894;SDS011;71358;45.642;13.758;2023-08-01T15:10:44;6.32;;;4.35;;
81894;SDS011;71358;45.642;13.758;2023-08-01T15:13:28;4.82;;;4.13;;
81894;SDS011;71358;45.642;13.758;2023-08-01T15:16:13;5.32;;;4.75;;
81894;SDS011;71358;45.642;13.758;2023-08-01T15:18:58;6.85;;;4.63;;
81894;SDS011;71358;45.642;13.758;2023-08-01T15:21:44;4.78;;;4.38;;
81894;SDS011;71358;45.642;13.758;2023-08-01T15:24:30;4.97;;;3.92;;
81894;SDS011;71358;45.642;13.758;2023-08-01T15:27:14;5.80;;;4.75;;
81894;SDS011;71358;45.642;13.758;2023-08-01T15:29:59;5.85;;;5.00;;
81894;SDS011;71358;45.642;13.758;2023-08-01T15:32:43;5.10;;;4.60;;
81894;SDS011;71358;45.642;13.758;2023-08-01T15:35:28;4.93;;;4.18;;
81894;SDS011;71358;45.642;13.758;2023-08-01T15:38:13;4.78;;;4.00;;
81894;SDS011;71358;45.642;13.758;2023-08-01T15:40:58;5.25;;;4.75;;
81894;SDS011;71358;45.642;13.758;2023-08-01T15:43:46;5.18;;;4.40;;
81894;SDS011;71358;45.642;13.758;2023-08-01T15:46:30;8.75;;;4.88;;
81894;SDS011;71358;45.642;13.758;2023-08-01T15:49:15;5.28;;;4.78;;
81894;SDS011;71358;45.642;13.758;2023-08-01T15:52:00;4.68;;;4.25;;
81894;SDS011;71358;45.642;13.758;2023-08-01T15:54:45;5.78;;;4.63;;
81894;SDS011;71358;45.642;13.758;2023-08-01T15:57:29;5.57;;;4.43;;
81894;SDS011;71358;45.642;13.758;2023-08-01T16:00:14;7.28;;;4.90;;
81894;SDS011;71358;45.642;13.758;2023-08-01T16:02:58;5.20;;;4.25;;
81894;SDS011;71358;45.642;13.758;2023-08-01T16:05:43;4.88;;;4.47;;
81894;SDS011;71358;45.642;13.758;2023-08-01T16:08:28;5.72;;;5.07;;
81894;SDS011;71358;45.642;13.758;2023-08-01T16:11:13;5.43;;;4.28;;
81894;SDS011;71358;45.642;13.758;2023-08-01T16:13:58;5.65;;;4.60;;
81894;SDS011;71358;45.642;13.758;2023-08-01T16:16:43;5.53;;;5.03;;
81894;SDS011;71358;45.642;13.758;2023-08-01T16:19:27;7.40;;;4.85;;
81894;SDS011;71358;45.642;13.758;2023-08-01T16:22:12;6.13;;;4.47;;
81894;SDS011;71358;45.642;13.758;2023-08-01T16:24:56;6.03;;;4.40;;
81894;SDS011;71358;45.642;13.758;2023-08-01T16:27:41;5.18;;;4.20;;
81894;SDS011;71358;45.642;13.758;2023-08-01T16:30:25;8.30;;;4.70;;
81894;SDS011;71358;45.642;13.758;2023-08-01T16:33:10;4.68;;;4.13;;
81894;SDS011;71358;45.642;13.758;2023-08-01T16:35:56;5.35;;;4.85;;
81894;SDS011;71358;45.642;13.758;2023-08-01T16:38:40;4.53;;;4.10;;
81894;SDS011;71358;45.642;13.758;2023-08-01T16:41:25;7.32;;;4.70;;
81894;SDS011;71358;45.642;13.758;2023-08-01T16:44:10;6.90;;;4.55;;
81894;SDS011;71358;45.642;13.758;2023-08-01T16:46:54;8.57;;;5.07;;
81894;SDS011;71358;45.642;13.758;2023-08-01T16:49:39;7.28;;;4.38;;
81894;SDS011;71358;45.642;13.758;2023-08-01T16:52:23;4.65;;;4.25;;
81894;SDS011;71358;45.642;13.758;2023-08-01T16:55:08;7.57;;;4.63;;
81894;SDS011;71358;45.642;13.758;2023-08-01T16:57:53;4.43;;;4.03;;
81894;SDS011;71358;45.642;13.758;2023-08-01T17:00:37;7.40;;;4.57;;
81894;SDS011;71358;45.642;13.758;2023-08-01T17:03:22;4.78;;;4.38;;
81894;SDS011;71358;45.642;13.758;2023-08-01T17:06:08;6.28;;;4.70;;
81894;SDS011;71358;45.642;13.758;2023-08-01T17:08:53;6.22;;;4.80;;
81894;SDS011;71358;45.642;13.758;2023-08-01T17:11:38;5.22;;;4.18;;
81894;SDS011;71358;45.642;13.758;2023-08-01T17:14:23;4.63;;;4.22;;
81894;SDS011;71358;45.642;13.758;2023-08-01T17:17:08;5.38;;;4.88;;
81894;SDS011;71358;45.642;13.758;2023-08-01T17:19:52;4.85;;;4.47;;
81894;SDS011;71358;45.642;13.758;2023-08-01T17:22:38;5.03;;;4.45;;
81894;SDS011;71358;45.642;13.758;2023-08-01T17:25:23;6.05;;;4.40;;
81894;SDS011;71358;45.642;13.758;2023-08-01T17:28:09;4.90;;;3.90;;
81894;SDS011;71358;45.642;13.758;2023-08-01T17:30:53;5.30;;;4.55;;
81894;SDS011;71358;45.642;13.758;2023-08-01T17:33:38;5.93;;;4.43;;
81894;SDS011;71358;45.642;13.758;2023-08-01T17:36:22;4.68;;;4.10;;
81894;SDS011;71358;45.642;13.758;2023-08-01T17:39:07;5.20;;;4.70;;
81894;SDS011;71358;45.642;13.758;2023-08-01T17:41:52;5.05;;;4.55;;
81894;SDS011;71358;45.642;13.758;2023-08-01T17:44:39;5.30;;;4.55;;
81894;SDS011;71358;45.642;13.758;2023-08-01T17:47:24;6.85;;;4.93;;
81894;SDS011;71358;45.642;13.758;2023-08-01T17:50:09;5.47;;;4.78;;
81894;SDS011;71358;45.642;13.758;2023-08-01T17:52:54;6.68;;;4.82;;
81894;SDS011;71358;45.642;13.758;2023-08-01T17:55:38;8.80;;;4.63;;
81894;SDS011;71358;45.642;13.758;2023-08-01T17:58:23;6.03;;;4.95;;
81894;SDS011;71358;45.642;13.758;2023-08-01T18:01:08;6.30;;;4.95;;
81894;SDS011;71358;45.642;13.758;2023-08-01T18:03:52;6.93;;;5.18;;
81894;SDS011;71358;45.642;13.758;2023-08-01T18:06:37;7.85;;;5.07;;
81894;SDS011;71358;45.642;13.758;2023-08-01T18:09:22;6.10;;;5.50;;
81894;SDS011;71358;45.642;13.758;2023-08-01T18:12:07;6.43;;;4.57;;
81894;SDS011;71358;45.642;13.758;2023-08-01T18:14:52;8.40;;;5.32;;
81894;SDS011;71358;45.642;13.758;2023-08-01T18:17:36;5.82;;;5.13;;
81894;SDS011;71358;45.642;13.758;2023-08-01T18:20:21;7.50;;;4.80;;
81894;SDS011;71358;45.642;13.758;2023-08-01T18:23:05;6.32;;;5.40;;
81894;SDS011;71358;45.642;13.758;2023-08-01T18:25:50;9.25;;;5.25;;
81894;SDS011;71358;45.642;13.758;2023-08-01T18:28:34;8.23;;;5.07;;
81894;SDS011;71358;45.642;13.758;2023-08-01T18:31:19;8.75;;;5.75;;
81894;SDS011;71358;45.642;13.758;2023-08-01T18:34:05;6.55;;;3.85;;
81894;SDS011;71358;45.642;13.758;2023-08-01T18:36:49;4.88;;;3.30;;
81894;SDS011;71358;45.642;13.758;2023-08-01T18:39:34;10.48;;;3.60;;
81894;SDS011;71358;45.642;13.758;2023-08-01T18:42:19;7.15;;;3.45;;
81894;SDS011;71358;45.642;13.758;2023-08-01T18:45:03;2.97;;;2.53;;
81894;SDS011;71358;45.642;13.758;2023-08-01T18:47:48;3.78;;;2.60;;
81894;SDS011;71358;45.642;13.758;2023-08-01T18:50:33;4.35;;;2.63;;
81894;SDS011;71358;45.642;13.758;2023-08-01T18:53:21;5.05;;;2.53;;
81894;SDS011;71358;45.642;13.758;2023-08-01T18:56:09;2.85;;;2.17;;
81894;SDS011;71358;45.642;13.758;2023-08-01T18:58:56;3.55;;;2.03;;
81894;SDS011;71358;45.642;13.758;2023-08-01T19:01:40;4.40;;;1.90;;
81894;SDS011;71358;45.642;13.758;2023-08-01T19:04:26;3.15;;;2.05;;
81894;SDS011;71358;45.642;13.758;2023-08-01T19:07:11;3.42;;;1.58;;
81894;SDS011;71358;45.642;13.758;2023-08-01T19:09:56;4.30;;;1.40;;
81894;SDS011;71358;45.642;13.758;2023-08-01T19:12:40;3.60;;;1.60;;
81894;SDS011;71358;45.642;13.758;2023-08-01T19:15:25;2.15;;;1.70;;
81894;SDS011;71358;45.642;13.758;2023-08-01T19:18:12;2.75;;;1.40;;
81894;SDS011;71358;45.642;13.758;2023-08-01T19:21:00;1.48;;;1.30;;
81894;SDS011;71358;45.642;13.758;2023-08-01T19:23:45;2.53;;;1.42;;
81894;SDS011;71358;45.642;13.758;2023-08-01T19:26:30;3.63;;;1.50;;
81894;SDS011;71358;45.642;13.758;2023-08-01T19:29:15;1.52;;;1.38;;
81894;SDS011;71358;45.642;13.758;2023-08-01T19:32:00;2.78;;;1.40;;
81894;SDS011;71358;45.642;13.758;2023-08-01T19:34:48;2.63;;;1.40;;
81894;SDS011;71358;45.642;13.758;2023-08-01T19:37:34;1.70;;;1.60;;
81894;SDS011;71358;45.642;13.758;2023-08-01T19:40:18;3.13;;;1.45;;
81894;SDS011;71358;45.642;13.758;2023-08-01T19:43:03;3.03;;;2.08;;
81894;SDS011;71358;45.642;13.758;2023-08-01T19:45:47;5.40;;;2.67;;
81894;SDS011;71358;45.642;13.758;2023-08-01T19:48:32;3.80;;;2.17;;
81894;SDS011;71358;45.642;13.758;2023-08-01T19:51:17;1.63;;;1.50;;
81894;SDS011;71358;45.642;13.758;2023-08-01T19:54:01;5.68;;;2.17;;
81894;SDS011;71358;45.642;13.758;2023-08-01T19:56:46;3.50;;;2.53;;
81894;SDS011;71358;45.642;13.758;2023-08-01T19:59:32;2.58;;;2.25;;
81894;SDS011;71358;45.642;13.758;2023-08-01T20:02:16;3.03;;;2.22;;
81894;SDS011;71358;45.642;13.758;2023-08-01T20:05:01;4.60;;;2.50;;
81894;SDS011;71358;45.642;13.758;2023-08-01T20:07:46;3.45;;;2.20;;
81894;SDS011;71358;45.642;13.758;2023-08-01T20:10:30;3.75;;;2.20;;
81894;SDS011;71358;45.642;13.758;2023-08-01T20:13:15;3.28;;;2.60;;
81894;SDS011;71358;45.642;13.758;2023-08-01T20:16:00;2.85;;;2.28;;
81894;SDS011;71358;45.642;13.758;2023-08-01T20:18:44;3.67;;;2.10;;
81894;SDS011;71358;45.642;13.758;2023-08-01T20:21:29;4.10;;;2.15;;
81894;SDS011;71358;45.642;13.758;2023-08-01T20:24:13;2.80;;;2.17;;
81894;SDS011;71358;45.642;13.758;2023-08-01T20:26:58;2.38;;;2.08;;
81894;SDS011;71358;45.642;13.758;2023-08-01T20:29:43;3.47;;;2.35;;
81894;SDS011;71358;45.642;13.758;2023-08-01T20:32:27;2.30;;;2.10;;
81894;SDS011;71358;45.642;13.758;2023-08-01T20:35:12;4.60;;;2.45;;
81894;SDS011;71358;45.642;13.758;2023-08-01T20:37:56;2.60;;;1.95;;
81894;SDS011;71358;45.642;13.758;2023-08-01T20:40:41;2.28;;;2.03;;
81894;SDS011;71358;45.642;13.758;2023-08-01T20:43:26;2.40;;;2.20;;